createdAt,value
2017-09-10T00:01:58.571Z,99483.67
2017-09-10T00:04:25.969Z,99491.34
2017-09-10T00:06:53.351Z,99491.34
2017-09-10T00:09:20.755Z,99499.15
2017-09-10T00:11:48.151Z,99495.16
2017-09-10T00:14:15.633Z,99503.83
2017-09-10T00:16:43.022Z,99507.91
2017-09-10T00:19:10.423Z,99515.80
2017-09-10T00:21:37.814Z,99522.92
2017-09-10T00:24:05.212Z,99519.67
2017-09-10T00:26:32.602Z,99511.86
2017-09-10T00:28:59.994Z,99519.75
2017-09-10T00:31:27.382Z,99519.09
2017-09-10T00:33:54.787Z,99518.33
2017-09-10T00:36:22.226Z,99517.67
2017-09-10T00:38:49.635Z,99517.59
2017-09-10T00:41:17.023Z,99516.95
2017-09-10T00:43:44.422Z,99513.47
2017-09-10T00:46:11.846Z,99524.33
2017-09-10T00:48:39.242Z,99526.19
2017-09-10T00:51:06.639Z,99531.39
2017-09-10T00:53:34.034Z,99531.91
2017-09-10T00:56:01.435Z,99538.78
2017-09-10T00:58:28.838Z,99541.36
2017-09-10T01:00:56.231Z,99534.66
2017-09-10T01:03:23.619Z,99539.94
2017-09-10T01:05:51.021Z,99543.05
2017-09-10T01:08:18.414Z,99537.77
2017-09-10T01:10:45.810Z,99543.55
2017-09-10T01:13:13.194Z,99545.03
2017-09-10T01:15:40.606Z,99546.97
2017-09-10T01:18:07.996Z,99548.43
2017-09-10T01:20:35.411Z,99553.57
2017-09-10T01:23:02.807Z,99550.48
2017-09-10T01:25:30.205Z,99546.30
2017-09-10T01:27:57.601Z,99551.09
2017-09-10T01:30:25.007Z,99548.77
2017-09-10T01:32:52.500Z,99550.48
2017-09-10T01:35:19.959Z,99549.06
2017-09-10T01:37:47.374Z,99551.01
2017-09-10T01:40:14.753Z,99557.19
2017-09-10T01:42:42.141Z,99558.16
2017-09-10T01:45:09.530Z,99560.88
2017-09-10T01:47:36.931Z,99569.09
2017-09-10T01:50:04.323Z,99574.96
2017-09-10T01:52:31.720Z,99573.67
2017-09-10T01:54:59.190Z,99577.44
2017-09-10T01:57:26.590Z,99580.22
2017-09-10T01:59:54.782Z,99577.44
2017-09-10T02:02:22.182Z,99579.88
2017-09-10T02:04:49.647Z,99586.52
2017-09-10T02:07:17.048Z,99588.64
2017-09-10T02:09:44.438Z,99593.76
2017-09-10T02:12:11.899Z,99593.84
2017-09-10T02:14:39.298Z,99579.16
2017-09-10T02:17:06.690Z,99589.08
2017-09-10T02:19:34.078Z,99587.48
2017-09-10T02:22:01.477Z,99582.17
2017-09-10T02:24:28.862Z,99579.27
2017-09-10T02:26:56.275Z,99578.30
2017-09-10T02:29:23.689Z,99585.72
2017-09-10T02:31:51.087Z,99586.73
2017-09-10T02:34:18.474Z,99586.61
2017-09-10T02:36:45.926Z,99584.58
2017-09-10T02:39:13.322Z,99592.88
2017-09-10T02:41:40.783Z,99589.73
2017-09-10T02:44:08.184Z,99592.97
2017-09-10T02:46:35.577Z,99590.28
2017-09-10T02:49:02.970Z,99590.49
2017-09-10T02:51:30.379Z,99588.22
2017-09-10T02:53:57.868Z,99593.17
2017-09-10T02:56:25.256Z,99598.48
2017-09-10T02:58:52.654Z,99591.48
2017-09-10T03:01:20.052Z,99593.67
2017-09-10T03:03:47.442Z,99599.48
2017-09-10T03:06:14.834Z,99605.13
2017-09-10T03:08:42.231Z,99608.06
2017-09-10T03:11:09.623Z,99605.31
2017-09-10T03:13:37.022Z,99603.63
2017-09-10T03:16:04.414Z,99603.78
2017-09-10T03:18:31.814Z,99606.05
2017-09-10T03:20:59.215Z,99602.28
2017-09-10T03:23:26.600Z,99605.77
2017-09-10T03:25:53.999Z,99606.27
2017-09-10T03:28:21.407Z,99610.25
2017-09-10T03:30:48.884Z,99617.80
2017-09-10T03:33:16.277Z,99616.13
2017-09-10T03:35:43.667Z,99618.22
2017-09-10T03:38:11.065Z,99620.45
2017-09-10T03:40:38.466Z,99624.72
2017-09-10T03:43:05.966Z,99617.39
2017-09-10T03:45:33.363Z,99618.73
2017-09-10T03:48:00.755Z,99618.50
2017-09-10T03:50:28.158Z,99617.95
2017-09-10T03:52:55.559Z,99613.98
2017-09-10T03:55:22.960Z,99618.84
2017-09-10T03:57:50.356Z,99614.81
2017-09-10T04:00:17.760Z,99616.47
2017-09-10T04:02:45.147Z,99620.33
2017-09-10T04:05:12.550Z,99626.04
2017-09-10T04:07:39.951Z,99634.45
2017-09-10T04:10:07.366Z,99638.42
2017-09-10T04:12:34.763Z,99645.09
2017-09-10T04:15:02.162Z,99642.52
2017-09-10T04:17:29.645Z,99648.45
2017-09-10T04:19:57.036Z,99658.31
2017-09-10T04:22:24.438Z,99653.09
2017-09-10T04:24:51.912Z,99652.16
2017-09-10T04:27:19.314Z,99653.48
2017-09-10T04:29:46.714Z,99653.88
2017-09-10T04:32:14.123Z,99656.15
2017-09-10T04:34:41.510Z,99656.75
2017-09-10T04:37:08.915Z,99656.02
2017-09-10T04:39:36.303Z,99654.97
2017-09-10T04:42:03.704Z,99655.57
2017-09-10T04:44:31.094Z,99652.52
2017-09-10T04:46:58.507Z,99661.31
2017-09-10T04:49:25.903Z,99652.60
2017-09-10T04:51:53.294Z,99651.61
2017-09-10T04:54:20.688Z,99657.66
2017-09-10T04:56:48.095Z,99657.31
2017-09-10T04:59:15.534Z,99665.72
2017-09-10T05:01:42.931Z,99670.67
2017-09-10T05:04:10.346Z,99669.55
2017-09-10T05:06:37.750Z,99672.25
2017-09-10T05:09:05.215Z,99679.22
2017-09-10T05:11:32.620Z,99678.20
2017-09-10T05:14:00.023Z,99678.99
2017-09-10T05:16:27.418Z,99685.19
2017-09-10T05:18:54.811Z,99685.59
2017-09-10T05:21:22.223Z,99691.17
2017-09-10T05:23:49.611Z,99695.44
2017-09-10T05:26:17.050Z,99696.22
2017-09-10T05:28:44.442Z,99699.81
2017-09-10T05:31:11.838Z,99702.50
2017-09-10T05:33:39.243Z,99703.86
2017-09-10T05:36:06.634Z,99702.63
2017-09-10T05:38:34.040Z,99707.14
2017-09-10T05:41:01.430Z,99704.65
2017-09-10T05:43:28.827Z,99705.07
2017-09-10T05:45:56.219Z,99710.28
2017-09-10T05:48:23.616Z,99710.00
2017-09-10T05:50:51.005Z,99724.08
2017-09-10T05:53:18.399Z,99719.67
2017-09-10T05:55:45.915Z,99728.19
2017-09-10T05:58:13.290Z,99733.80
2017-09-10T06:00:40.700Z,99735.73
2017-09-10T06:03:08.094Z,99735.66
2017-09-10T06:05:35.502Z,99737.56
2017-09-10T06:08:02.895Z,99731.40
2017-09-10T06:10:30.294Z,99732.73
2017-09-10T06:12:57.694Z,99731.97
2017-09-10T06:15:25.090Z,99746.70
2017-09-10T06:17:52.474Z,99740.44
2017-09-10T06:20:19.876Z,99746.88
2017-09-10T06:22:47.270Z,99748.41
2017-09-10T06:25:14.670Z,99751.58
2017-09-10T06:27:42.062Z,99753.06
2017-09-10T06:30:09.458Z,99747.25
2017-09-10T06:32:36.858Z,99747.75
2017-09-10T06:35:04.260Z,99739.92
2017-09-10T06:37:31.650Z,99740.02
2017-09-10T06:39:59.051Z,99737.27
2017-09-10T06:42:26.442Z,99746.72
2017-09-10T06:44:53.922Z,99758.23
2017-09-10T06:47:21.321Z,99754.92
2017-09-10T06:49:48.736Z,99754.67
2017-09-10T06:52:16.126Z,99757.39
2017-09-10T06:54:43.523Z,99753.00
2017-09-10T06:57:10.998Z,99750.81
2017-09-10T06:59:38.450Z,99755.06
2017-09-10T07:02:05.851Z,99752.64
2017-09-10T07:04:33.247Z,99759.84
2017-09-10T07:07:00.652Z,99764.39
2017-09-10T07:09:28.051Z,99763.64
2017-09-10T07:11:55.446Z,99770.67
2017-09-10T07:14:22.835Z,99771.00
2017-09-10T07:16:50.243Z,99771.52
2017-09-10T07:19:17.633Z,99767.59
2017-09-10T07:21:45.027Z,99775.75
2017-09-10T07:24:12.421Z,99772.50
2017-09-10T07:26:39.815Z,99763.22
2017-09-10T07:29:07.198Z,99769.62
2017-09-10T07:31:34.622Z,99768.18
2017-09-10T07:34:02.022Z,99774.50
2017-09-10T07:36:29.423Z,99771.50
2017-09-10T07:38:56.963Z,99772.66
2017-09-10T07:41:24.338Z,99767.42
2017-09-10T07:43:51.743Z,99769.27
2017-09-10T07:46:19.130Z,99774.95
2017-09-10T07:48:46.522Z,99781.90
2017-09-10T07:51:13.915Z,99787.59
2017-09-10T07:53:41.387Z,99781.77
2017-09-10T07:56:08.778Z,99785.34
2017-09-10T07:58:36.192Z,99793.80
2017-09-10T08:01:03.578Z,99789.97
2017-09-10T08:03:30.978Z,99783.73
2017-09-10T08:05:58.386Z,99784.78
2017-09-10T08:08:25.778Z,99782.09
2017-09-10T08:10:53.170Z,99787.70
2017-09-10T08:13:20.566Z,99790.19
2017-09-10T08:15:47.958Z,99788.56
2017-09-10T08:18:15.383Z,99789.33
2017-09-10T08:20:42.800Z,99790.88
2017-09-10T08:23:10.187Z,99782.81
2017-09-10T08:25:37.598Z,99778.69
2017-09-10T08:28:05.000Z,99783.17
2017-09-10T08:30:32.394Z,99780.52
2017-09-10T08:32:59.781Z,99784.12
2017-09-10T08:35:27.226Z,99779.17
2017-09-10T08:37:54.610Z,99781.95
2017-09-10T08:40:22.011Z,99781.88
2017-09-10T08:42:49.407Z,99779.56
2017-09-10T08:45:16.805Z,99778.44
2017-09-10T08:47:45.167Z,99779.20
2017-09-10T08:50:12.557Z,99785.55
2017-09-10T08:52:39.951Z,99778.29
2017-09-10T08:55:07.347Z,99775.84
2017-09-10T08:57:34.738Z,99778.55
2017-09-10T09:00:02.130Z,99773.04
2017-09-10T09:02:29.519Z,99772.77
2017-09-10T09:04:56.923Z,99771.34
2017-09-10T09:07:24.365Z,99776.28
2017-09-10T09:09:51.769Z,99767.44
2017-09-10T09:12:19.155Z,99764.13
2017-09-10T09:14:46.545Z,99757.17
2017-09-10T09:17:13.943Z,99762.58
2017-09-10T09:19:41.334Z,99768.41
2017-09-10T09:22:09.326Z,99770.20
2017-09-10T09:24:36.770Z,99770.77
2017-09-10T09:27:04.230Z,99775.73
2017-09-10T09:29:31.622Z,99773.98
2017-09-10T09:31:59.011Z,99774.63
2017-09-10T09:34:26.399Z,99768.50
2017-09-10T09:36:53.800Z,99762.61
2017-09-10T09:39:21.187Z,99770.00
2017-09-10T09:41:48.587Z,99767.19
2017-09-10T09:44:15.967Z,99779.93
2017-09-10T09:46:43.354Z,99774.31
2017-09-10T09:49:10.739Z,99777.12
2017-09-10T09:51:38.134Z,99773.93
2017-09-10T09:54:05.536Z,99780.08
2017-09-10T09:56:32.995Z,99774.09
2017-09-10T09:59:00.375Z,99778.48
2017-09-10T10:01:27.751Z,99778.87
2017-09-10T10:03:55.142Z,99777.34
2017-09-10T10:06:22.534Z,99775.23
2017-09-10T10:08:49.925Z,99778.64
2017-09-10T10:11:17.298Z,99777.78
2017-09-10T10:13:44.700Z,99780.36
2017-09-10T10:16:12.082Z,99773.55
2017-09-10T10:18:39.466Z,99774.78
2017-09-10T10:21:06.847Z,99773.47
2017-09-10T10:23:34.239Z,99770.26
2017-09-10T10:26:01.629Z,99767.33
2017-09-10T10:28:29.019Z,99769.66
2017-09-10T10:30:56.403Z,99770.72
2017-09-10T10:33:23.792Z,99769.83
2017-09-10T10:35:51.171Z,99765.80
2017-09-10T10:38:18.645Z,99768.19
2017-09-10T10:40:46.107Z,99767.51
2017-09-10T10:43:14.399Z,99768.42
2017-09-10T10:45:41.774Z,99762.84
2017-09-10T10:48:09.164Z,99763.05
2017-09-10T10:50:36.580Z,99757.44
2017-09-10T10:53:03.970Z,99758.92
2017-09-10T10:55:31.354Z,99754.99
2017-09-10T10:57:58.735Z,99754.85
2017-09-10T11:00:26.119Z,99747.73
2017-09-10T11:02:53.522Z,99746.16
2017-09-10T11:05:20.941Z,99746.27
2017-09-10T11:07:48.286Z,99746.34
2017-09-10T11:10:15.671Z,99732.84
2017-09-10T11:12:43.045Z,99736.73
2017-09-10T11:15:10.435Z,99737.67
2017-09-10T11:17:37.817Z,99738.41
2017-09-10T11:20:05.208Z,99733.50
2017-09-10T11:22:32.671Z,99739.92
2017-09-10T11:25:00.058Z,99737.01
2017-09-10T11:27:27.475Z,99736.23
2017-09-10T11:29:54.867Z,99735.53
2017-09-10T11:32:22.247Z,99741.83
2017-09-10T11:34:49.650Z,99742.91
2017-09-10T11:37:17.035Z,99745.98
2017-09-10T11:39:44.430Z,99747.13
2017-09-10T11:42:11.810Z,99744.42
2017-09-10T11:44:39.276Z,99752.72
2017-09-10T11:47:06.654Z,99747.07
2017-09-10T11:49:34.041Z,99747.15
2017-09-10T11:52:01.443Z,99747.95
2017-09-10T11:54:28.819Z,99740.77
2017-09-10T11:56:56.209Z,99743.08
2017-09-10T11:59:23.606Z,99738.23
2017-09-10T12:04:17.667Z,99737.26
2017-09-10T12:06:45.065Z,99738.66
2017-09-10T12:09:12.528Z,99742.99
2017-09-10T12:11:39.911Z,99735.49
2017-09-10T12:14:07.298Z,99731.12
2017-09-10T12:16:34.686Z,99735.28
2017-09-10T12:19:02.063Z,99734.95
2017-09-10T12:21:29.455Z,99742.24
2017-09-10T12:23:56.834Z,99743.16
2017-09-10T12:26:24.223Z,99741.73
2017-09-10T12:28:51.658Z,99740.59
2017-09-10T12:31:19.050Z,99734.77
2017-09-10T12:33:46.471Z,99732.69
2017-09-10T12:36:13.855Z,99725.92
2017-09-10T12:38:41.244Z,99726.64
2017-09-10T12:41:08.623Z,99722.05
2017-09-10T12:43:36.013Z,99721.50
2017-09-10T12:46:03.394Z,99717.86
2017-09-10T12:48:30.806Z,99707.16
2017-09-10T12:50:58.186Z,99706.93
2017-09-10T12:53:25.579Z,99703.00
2017-09-10T12:55:52.970Z,99701.73
2017-09-10T12:58:20.366Z,99695.14
2017-09-10T13:00:47.752Z,99700.94
2017-09-10T13:03:15.197Z,99702.02
2017-09-10T13:05:42.576Z,99704.34
2017-09-10T13:08:09.982Z,99691.23
2017-09-10T13:10:37.359Z,99695.73
2017-09-10T13:13:04.743Z,99690.82
2017-09-10T13:15:32.123Z,99686.30
2017-09-10T13:17:59.513Z,99686.13
2017-09-10T13:20:26.900Z,99678.98
2017-09-10T13:22:54.287Z,99681.58
2017-09-10T13:25:21.749Z,99674.67
2017-09-10T13:27:49.144Z,99669.62
2017-09-10T13:30:16.558Z,99664.82
2017-09-10T13:32:43.939Z,99655.83
2017-09-10T13:35:11.330Z,99655.01
2017-09-10T13:37:38.735Z,99658.20
2017-09-10T13:40:06.109Z,99655.88
2017-09-10T13:42:33.493Z,99647.89
2017-09-10T13:45:00.874Z,99652.91
2017-09-10T13:47:28.354Z,99647.74
2017-09-10T13:49:55.743Z,99635.30
2017-09-10T13:52:23.134Z,99645.72
2017-09-10T13:54:50.531Z,99639.65
2017-09-10T13:57:17.975Z,99642.45
2017-09-10T13:59:45.370Z,99632.89
2017-09-10T14:02:12.754Z,99629.25
2017-09-10T14:04:40.144Z,99630.04
2017-09-10T14:07:07.532Z,99627.25
2017-09-10T14:09:34.942Z,99629.02
2017-09-10T14:12:02.327Z,99631.73
2017-09-10T14:14:29.718Z,99631.20
2017-09-10T14:16:57.098Z,99625.63
2017-09-10T14:19:24.487Z,99623.50
2017-09-10T14:21:51.874Z,99624.08
2017-09-10T14:24:19.256Z,99629.34
2017-09-10T14:26:46.743Z,99635.17
2017-09-10T14:29:14.126Z,99630.56
2017-09-10T14:31:41.539Z,99630.95
2017-09-10T14:34:08.915Z,99631.05
2017-09-10T14:36:36.303Z,99631.26
2017-09-10T14:39:03.708Z,99638.27
2017-09-10T14:41:31.099Z,99621.81
2017-09-10T14:43:58.575Z,99611.80
2017-09-10T14:46:25.963Z,99619.30
2017-09-10T14:48:53.344Z,99627.35
2017-09-10T14:51:20.738Z,99618.28
2017-09-10T14:53:48.184Z,99616.05
2017-09-10T14:56:15.558Z,99623.28
2017-09-10T14:58:42.938Z,99628.80
2017-09-10T15:01:10.326Z,99617.44
2017-09-10T15:03:37.714Z,99626.49
2017-09-10T15:06:05.099Z,99616.69
2017-09-10T15:08:32.492Z,99622.40
2017-09-10T15:10:59.875Z,99619.07
2017-09-10T15:13:27.259Z,99629.12
2017-09-10T15:15:54.639Z,99614.52
2017-09-10T15:18:22.027Z,99627.55
2017-09-10T15:20:49.416Z,99626.22
2017-09-10T15:23:16.803Z,99613.17
2017-09-10T15:25:44.187Z,99620.41
2017-09-10T15:28:11.577Z,99611.80
2017-09-10T15:30:38.987Z,99618.44
2017-09-10T15:33:06.374Z,99626.59
2017-09-10T15:35:33.754Z,99624.94
2017-09-10T15:38:01.168Z,99622.59
2017-09-10T15:40:28.542Z,99618.18
2017-09-10T15:42:55.929Z,99624.41
2017-09-10T15:45:23.307Z,99628.29
2017-09-10T15:47:50.702Z,99610.09
2017-09-10T15:50:18.085Z,99617.56
2017-09-10T15:52:45.475Z,99612.98
2017-09-10T15:55:12.864Z,99606.48
2017-09-10T15:57:40.246Z,99614.06
2017-09-10T16:00:07.675Z,99612.28
2017-09-10T16:02:35.030Z,99620.73
2017-09-10T16:05:02.428Z,99609.12
2017-09-10T16:07:29.825Z,99603.44
2017-09-10T16:09:57.206Z,99594.67
2017-09-10T16:12:24.586Z,99596.80
2017-09-10T16:14:51.984Z,99599.89
2017-09-10T16:17:19.362Z,99600.83
2017-09-10T16:19:46.782Z,99593.91
2017-09-10T16:22:14.168Z,99594.53
2017-09-10T16:24:41.559Z,99594.02
2017-09-10T16:27:08.944Z,99594.20
2017-09-10T16:29:36.330Z,99590.22
2017-09-10T16:32:03.723Z,99586.41
2017-09-10T16:34:31.143Z,99590.68
2017-09-10T16:36:58.502Z,99586.77
2017-09-10T16:39:25.891Z,99586.16
2017-09-10T16:41:53.266Z,99577.94
2017-09-10T16:44:20.658Z,99577.50
2017-09-10T16:46:48.042Z,99581.42
2017-09-10T16:49:15.438Z,99575.48
2017-09-10T16:51:42.822Z,99577.88
2017-09-10T16:54:10.203Z,99556.83
2017-09-10T16:56:37.599Z,99550.87
2017-09-10T16:59:04.995Z,99538.46
2017-09-10T17:01:32.387Z,99537.88
2017-09-10T17:03:59.762Z,99534.09
2017-09-10T17:06:27.150Z,99535.64
2017-09-10T17:08:54.531Z,99534.16
2017-09-10T17:11:21.919Z,99530.20
2017-09-10T17:13:49.304Z,99531.17
2017-09-10T17:16:16.775Z,99534.38
2017-09-10T17:18:44.210Z,99534.67
2017-09-10T17:21:11.676Z,99530.77
2017-09-10T17:23:39.051Z,99532.54
2017-09-10T17:26:06.439Z,99537.47
2017-09-10T17:28:33.819Z,99527.51
2017-09-10T17:31:01.211Z,99526.05
2017-09-10T17:33:28.771Z,99530.80
2017-09-10T17:35:56.151Z,99522.50
2017-09-10T17:38:23.540Z,99531.48
2017-09-10T17:40:50.920Z,99527.28
2017-09-10T17:43:18.380Z,99527.07
2017-09-10T17:45:45.760Z,99521.92
2017-09-10T17:48:13.155Z,99524.85
2017-09-10T17:50:40.555Z,99523.58
2017-09-10T17:53:07.940Z,99522.48
2017-09-10T17:55:35.318Z,99520.14
2017-09-10T17:58:02.702Z,99525.41
2017-09-10T18:00:30.087Z,99526.40
2017-09-10T18:02:57.471Z,99519.00
2017-09-10T18:05:24.871Z,99520.44
2017-09-10T18:07:52.263Z,99524.25
2017-09-10T18:10:19.647Z,99524.14
2017-09-10T18:12:47.038Z,99518.89
2017-09-10T18:15:14.428Z,99525.22
2017-09-10T18:17:42.823Z,99525.02
2017-09-10T18:20:10.210Z,99522.94
2017-09-10T18:22:37.686Z,99521.06
2017-09-10T18:25:05.066Z,99519.75
2017-09-10T18:27:32.466Z,99515.95
2017-09-10T18:29:59.854Z,99515.14
2017-09-10T18:32:27.318Z,99514.88
2017-09-10T18:34:54.702Z,99506.75
2017-09-10T18:37:22.128Z,99506.13
2017-09-10T18:39:49.515Z,99502.23
2017-09-10T18:42:16.895Z,99505.18
2017-09-10T18:44:44.391Z,99497.93
2017-09-10T18:47:11.766Z,99501.78
2017-09-10T18:49:39.155Z,99501.23
2017-09-10T18:52:06.553Z,99493.28
2017-09-10T18:57:07.791Z,99501.81
2017-09-10T18:59:35.183Z,99498.89
2017-09-10T19:02:02.958Z,99506.66
2017-09-10T19:04:30.347Z,99497.67
2017-09-10T19:06:57.735Z,99496.56
2017-09-10T19:09:25.133Z,99496.56
2017-09-10T19:11:52.502Z,99499.84
2017-09-10T19:14:19.890Z,99496.53
2017-09-10T19:16:47.274Z,99483.59
2017-09-10T19:19:14.726Z,99482.34
2017-09-10T19:21:42.101Z,99478.75
2017-09-10T19:24:09.490Z,99476.91
2017-09-10T19:26:36.894Z,99471.92
2017-09-10T19:29:04.279Z,99461.99
2017-09-10T19:31:31.679Z,99463.30
2017-09-10T19:33:59.069Z,99465.13
2017-09-10T19:36:26.454Z,99463.56
2017-09-10T19:38:53.831Z,99462.53
2017-09-10T19:41:21.226Z,99463.97
2017-09-10T19:43:48.598Z,99462.88
2017-09-10T19:46:15.991Z,99459.17
2017-09-10T19:48:43.371Z,99453.83
2017-09-10T19:51:10.762Z,99450.30
2017-09-10T19:53:38.142Z,99450.80
2017-09-10T19:56:05.527Z,99453.02
2017-09-10T19:58:32.906Z,99447.27
2017-09-10T20:01:00.294Z,99450.92
2017-09-10T20:03:27.675Z,99451.25
2017-09-10T20:05:55.058Z,99442.09
2017-09-10T20:08:22.444Z,99437.09
2017-09-10T20:10:49.835Z,99440.59
2017-09-10T20:13:17.214Z,99432.16
2017-09-10T20:15:44.597Z,99428.22
2017-09-10T20:18:11.982Z,99423.60
2017-09-10T20:20:39.372Z,99425.81
2017-09-10T20:23:06.758Z,99417.68
2017-09-10T20:25:34.138Z,99419.66
2017-09-10T20:28:01.523Z,99418.39
2017-09-10T20:30:28.935Z,99414.54
2017-09-10T20:32:56.387Z,99415.37
2017-09-10T20:35:23.771Z,99413.27
2017-09-10T20:37:51.163Z,99402.11
2017-09-10T20:40:18.551Z,99407.09
2017-09-10T20:42:45.939Z,99398.81
2017-09-10T20:45:13.327Z,99402.56
2017-09-10T20:47:40.715Z,99393.86
2017-09-10T20:50:08.099Z,99390.33
2017-09-10T20:52:35.488Z,99379.66
2017-09-10T20:55:02.867Z,99376.42
2017-09-10T20:57:30.260Z,99376.80
2017-09-10T20:59:57.658Z,99373.45
2017-09-10T21:02:25.064Z,99379.27
2017-09-10T21:04:52.506Z,99371.52
2017-09-10T21:07:19.957Z,99366.16
2017-09-10T21:09:47.420Z,99363.05
2017-09-10T21:12:14.871Z,99356.52
2017-09-10T21:14:42.266Z,99357.00
2017-09-10T21:17:09.650Z,99360.52
2017-09-10T21:19:37.042Z,99353.20
2017-09-10T21:22:04.423Z,99351.05
2017-09-10T21:24:31.841Z,99342.08
2017-09-10T21:26:59.222Z,99344.14
2017-09-10T21:29:26.610Z,99344.11
2017-09-10T21:31:54.006Z,99349.14
2017-09-10T21:34:21.383Z,99343.70
2017-09-10T21:36:48.767Z,99343.66
2017-09-10T21:39:16.150Z,99340.13
2017-09-10T21:41:43.541Z,99331.95
2017-09-10T21:44:10.931Z,99331.20
2017-09-10T21:46:38.316Z,99331.04
2017-09-10T21:49:05.699Z,99324.77
2017-09-10T21:51:33.082Z,99326.25
2017-09-10T21:54:00.507Z,99323.89
2017-09-10T21:56:27.886Z,99325.45
2017-09-10T21:58:55.266Z,99323.97
2017-09-10T22:01:22.658Z,99322.56
2017-09-10T22:03:50.039Z,99318.04
2017-09-10T22:06:17.418Z,99312.09
2017-09-10T22:08:44.809Z,99307.83
2017-09-10T22:11:12.298Z,99312.18
2017-09-10T22:13:39.758Z,99307.69
2017-09-10T22:16:07.148Z,99305.08
2017-09-10T22:18:34.525Z,99303.91
2017-09-10T22:21:01.919Z,99306.47
2017-09-10T22:23:29.299Z,99296.34
2017-09-10T22:25:56.768Z,99291.63
2017-09-10T22:28:24.242Z,99294.02
2017-09-10T22:30:51.647Z,99293.50
2017-09-10T22:33:19.106Z,99289.88
2017-09-10T22:35:46.491Z,99291.02
2017-09-10T22:38:13.866Z,99285.23
2017-09-10T22:40:41.266Z,99281.05
2017-09-10T22:43:08.727Z,99279.14
2017-09-10T22:45:36.119Z,99274.27
2017-09-10T22:48:03.502Z,99273.60
2017-09-10T22:50:30.894Z,99271.14
2017-09-10T22:52:58.286Z,99261.09
2017-09-10T22:55:25.710Z,99260.23
2017-09-10T22:57:53.097Z,99261.65
2017-09-10T23:00:20.474Z,99247.22
2017-09-10T23:02:47.863Z,99249.83
2017-09-10T23:05:15.247Z,99243.88
2017-09-10T23:07:42.645Z,99248.75
2017-09-10T23:10:10.023Z,99242.92
2017-09-10T23:12:37.407Z,99241.87
2017-09-10T23:15:04.794Z,99245.48
2017-09-10T23:17:32.198Z,99240.63
2017-09-10T23:19:59.587Z,99238.69
2017-09-10T23:22:27.027Z,99236.25
2017-09-10T23:24:54.406Z,99236.02
2017-09-10T23:27:21.803Z,99224.70
2017-09-10T23:29:49.195Z,99221.77
2017-09-10T23:32:16.587Z,99229.63
2017-09-10T23:34:43.979Z,99215.72
2017-09-10T23:37:11.380Z,99216.75
2017-09-10T23:39:38.764Z,99208.91
2017-09-10T23:42:06.253Z,99208.61
2017-09-10T23:44:33.650Z,99208.00
2017-09-10T23:47:01.036Z,99206.64
2017-09-10T23:49:28.422Z,99203.16
2017-09-10T23:51:55.807Z,99203.13
2017-09-10T23:54:23.191Z,99198.58
2017-09-10T23:56:50.570Z,99192.28
2017-09-10T23:59:17.955Z,99188.59
